Time,TemperatureF,DewpointF,PressureIn,WindDirection,WindDirectionDegrees,WindSpeedMPH,WindSpeedGustMPH,Humidity,HourlyPrecipIn,Conditions,Clouds,dailyrainin,SoftwareType,DateUTC
2013-05-09 00:07:00,58.4,57.0,30.06,NE,34,0.0,0.0,95,0.03,,,0.07,weatherlink.com 1.10,2013-05-09 04:07:00,
2013-05-09 00:23:00,58.2,57.0,30.05,NE,34,0.0,0.0,95,0.03,,,0.00,weatherlink.com 1.10,2013-05-09 04:23:00,
2013-05-09 00:37:00,58.1,57.0,30.05,NE,34,0.0,0.0,95,0.03,,,0.00,weatherlink.com 1.10,2013-05-09 04:37:00,
2013-05-09 00:54:00,57.9,57.0,30.05,NE,43,0.0,0.0,95,0.00,,,0.00,weatherlink.com 1.10,2013-05-09 04:54:00,
2013-05-09 01:08:00,57.6,56.0,30.05,NW,321,0.0,0.0,95,0.00,,,0.00,weatherlink.com 1.10,2013-05-09 05:08:00,
2013-05-09 01:24:00,57.3,56.0,30.04,NW,321,0.0,0.0,95,0.00,,,0.00,weatherlink.com 1.10,2013-05-09 05:24:00,
2013-05-09 01:38:00,57.2,56.0,30.04,NW,321,0.0,0.0,95,0.00,,,0.00,weatherlink.com 1.10,2013-05-09 05:38:00,
2013-05-09 01:54:00,57.0,56.0,30.03,NW,321,0.0,0.0,95,0.00,,,0.00,weatherlink.com 1.10,2013-05-09 05:54:00,
2013-05-09 02:09:00,56.9,56.0,30.03,NW,321,0.0,0.0,95,0.00,,,0.00,weatherlink.com 1.10,2013-05-09 06:09:00,
2013-05-09 02:24:00,56.9,56.0,30.02,NW,321,0.0,0.0,95,0.00,,,0.00,weatherlink.com 1.10,2013-05-09 06:24:00,
2013-05-09 02:40:00,56.6,55.0,30.02,NW,321,0.0,0.0,95,0.00,,,0.00,weatherlink.com 1.10,2013-05-09 06:40:00,
2013-05-09 02:55:00,56.2,55.0,30.02,NW,321,0.0,0.0,95,0.00,,,0.00,weatherlink.com 1.10,2013-05-09 06:55:00,
2013-05-09 03:09:00,56.0,55.0,30.01,NW,326,0.0,0.0,96,0.01,,,0.01,weatherlink.com 1.10,2013-05-09 07:09:00,
2013-05-09 03:25:00,55.9,55.0,30.01,NW,326,0.0,1.0,96,0.05,,,0.05,weatherlink.com 1.10,2013-05-09 07:25:00,
2013-05-09 03:40:00,55.8,55.0,30.00,NW,326,0.0,0.0,96,0.09,,,0.09,weatherlink.com 1.10,2013-05-09 07:40:00,
2013-05-09 03:55:00,55.7,55.0,30.00,NW,326,0.0,0.0,96,0.15,,,0.15,weatherlink.com 1.10,2013-05-09 07:55:00,
2013-05-09 04:10:00,55.5,54.0,30.00,NW,326,0.0,1.0,96,0.18,,,0.20,weatherlink.com 1.10,2013-05-09 08:10:00,
2013-05-09 04:26:00,55.2,54.0,30.00,SW,217,0.0,0.0,96,0.16,,,0.21,weatherlink.com 1.10,2013-05-09 08:26:00,
2013-05-09 04:40:00,55.2,54.0,29.99,SW,217,0.0,0.0,96,0.11,,,0.21,weatherlink.com 1.10,2013-05-09 08:40:00,
2013-05-09 04:55:00,55.1,54.0,29.99,SW,217,0.0,0.0,96,0.05,,,0.21,weatherlink.com 1.10,2013-05-09 08:55:00,
2013-05-09 05:11:00,55.0,54.0,29.98,SW,217,0.0,0.0,96,0.01,,,0.21,weatherlink.com 1.10,2013-05-09 09:11:00,
2013-05-09 05:26:00,55.0,54.0,29.98,SW,217,0.0,0.0,96,0.00,,,0.21,weatherlink.com 1.10,2013-05-09 09:26:00,
2013-05-09 05:42:00,55.2,54.0,29.99,SW,217,0.0,0.0,96,0.00,,,0.21,weatherlink.com 1.10,2013-05-09 09:42:00,
2013-05-09 05:57:00,55.2,54.0,29.99,SW,217,0.0,0.0,96,0.00,,,0.21,weatherlink.com 1.10,2013-05-09 09:57:00,
2013-05-09 06:11:00,55.2,54.0,29.99,SW,217,0.0,0.0,96,0.00,,,0.21,weatherlink.com 1.10,2013-05-09 10:11:00,
2013-05-09 06:26:00,55.3,54.0,29.99,SW,217,0.0,0.0,96,0.00,,,0.21,weatherlink.com 1.10,2013-05-09 10:26:00,
2013-05-09 06:41:00,55.5,55.0,29.99,SW,217,0.0,0.0,97,0.00,,,0.21,weatherlink.com 1.10,2013-05-09 10:41:00,
2013-05-09 06:56:00,55.7,55.0,29.99,SW,217,0.0,0.0,97,0.00,,,0.21,weatherlink.com 1.10,2013-05-09 10:56:00,
2013-05-09 07:12:00,56.1,55.0,29.98,SW,217,0.0,0.0,97,0.00,,,0.21,weatherlink.com 1.10,2013-05-09 11:12:00,
2013-05-09 07:27:00,56.2,55.0,29.98,SW,217,0.0,0.0,97,0.00,,,0.21,weatherlink.com 1.10,2013-05-09 11:27:00,
2013-05-09 07:43:00,56.2,55.0,29.99,SW,217,0.0,0.0,97,0.00,,,0.21,weatherlink.com 1.10,2013-05-09 11:43:00,
2013-05-09 07:57:00,56.3,56.0,30.00,SW,217,0.0,0.0,97,0.00,,,0.21,weatherlink.com 1.10,2013-05-09 11:57:00,
2013-05-09 08:12:00,56.3,56.0,29.99,SW,217,0.0,0.0,97,0.00,,,0.21,weatherlink.com 1.10,2013-05-09 12:12:00,
2013-05-09 08:27:00,56.7,56.0,29.99,SW,217,0.0,0.0,97,0.00,,,0.21,weatherlink.com 1.10,2013-05-09 12:27:00,
2013-05-09 08:42:00,57.0,56.0,29.99,SW,217,0.0,0.0,97,0.00,,,0.21,weatherlink.com 1.10,2013-05-09 12:42:00,
2013-05-09 08:57:00,57.5,56.0,29.99,SW,217,0.0,1.0,96,0.00,,,0.21,weatherlink.com 1.10,2013-05-09 12:57:00,
2013-05-09 09:15:00,57.8,56.0,29.98,SW,217,0.0,0.0,94,0.00,,,0.21,weatherlink.com 1.10,2013-05-09 13:15:00,
2013-05-09 09:28:00,58.5,57.0,29.98,NNW,340,0.0,2.0,93,0.00,,,0.21,weatherlink.com 1.10,2013-05-09 13:28:00,
2013-05-09 09:45:00,59.2,57.0,29.98,WNW,297,0.0,0.0,92,0.00,,,0.21,weatherlink.com 1.10,2013-05-09 13:45:00,
2013-05-09 09:58:00,59.7,57.0,29.98,NW,314,0.0,1.0,89,0.00,,,0.21,weatherlink.com 1.10,2013-05-09 13:58:00,
2013-05-09 10:14:00,60.2,57.0,29.96,WSW,253,0.0,0.0,88,0.00,,,0.21,weatherlink.com 1.10,2013-05-09 14:14:00,
2013-05-09 10:29:00,61.0,58.0,29.96,NNW,331,0.0,2.0,88,0.00,,,0.21,weatherlink.com 1.10,2013-05-09 14:29:00,
2013-05-09 10:44:00,61.8,57.0,29.96,WNW,296,0.0,1.0,85,0.00,,,0.21,weatherlink.com 1.10,2013-05-09 14:44:00,
2013-05-09 10:59:00,62.1,57.0,29.96,ENE,66,0.0,1.0,84,0.00,,,0.21,weatherlink.com 1.10,2013-05-09 14:59:00,
2013-05-09 11:14:00,61.8,58.0,29.96,NW,326,0.0,1.0,86,0.00,,,0.21,weatherlink.com 1.10,2013-05-09 15:14:00,
2013-05-09 11:30:00,62.1,57.0,29.96,SW,236,0.0,3.0,84,0.00,,,0.21,weatherlink.com 1.10,2013-05-09 15:30:00,
2013-05-09 11:44:00,61.8,58.0,29.96,NNE,28,0.0,4.0,86,0.00,,,0.21,weatherlink.com 1.10,2013-05-09 15:44:00,
2013-05-09 12:01:00,61.9,57.0,29.95,NE,38,0.0,3.0,85,0.00,,,0.21,weatherlink.com 1.10,2013-05-09 16:01:00,
2013-05-09 12:15:00,62.1,58.0,29.95,NNE,30,0.0,0.0,85,0.00,,,0.21,weatherlink.com 1.10,2013-05-09 16:15:00,
2013-05-09 12:31:00,62.5,58.0,29.94,NNE,20,0.0,0.0,85,0.00,,,0.21,weatherlink.com 1.10,2013-05-09 16:31:00,
2013-05-09 12:46:00,62.7,57.0,29.93,NNE,20,0.0,1.0,82,0.00,,,0.21,weatherlink.com 1.10,2013-05-09 16:46:00,
2013-05-09 13:01:00,63.9,59.0,29.93,NNE,20,0.0,0.0,84,0.00,,,0.21,weatherlink.com 1.10,2013-05-09 17:01:00,
2013-05-09 13:15:00,63.9,58.0,29.93,NW,316,0.0,3.0,80,0.00,,,0.21,weatherlink.com 1.10,2013-05-09 17:15:00,
2013-05-09 13:31:00,64.4,58.0,29.93,NNW,340,0.0,2.0,80,0.00,,,0.21,weatherlink.com 1.10,2013-05-09 17:31:00,
2013-05-09 13:46:00,64.9,58.0,29.92,NNW,341,0.0,1.0,79,0.00,,,0.21,weatherlink.com 1.10,2013-05-09 17:46:00,
2013-05-09 14:01:00,65.2,58.0,29.91,NNE,17,0.0,1.0,78,0.00,,,0.21,weatherlink.com 1.10,2013-05-09 18:01:00,
2013-05-09 14:16:00,65.6,58.0,29.91,NNE,29,0.0,4.0,76,0.00,,,0.21,weatherlink.com 1.10,2013-05-09 18:16:00,
2013-05-09 14:32:00,65.4,58.0,29.90,North,360,0.0,0.0,76,0.00,,,0.21,weatherlink.com 1.10,2013-05-09 18:32:00,
2013-05-09 14:46:00,66.6,58.0,29.89,WSW,248,0.0,2.0,75,0.00,,,0.21,weatherlink.com 1.10,2013-05-09 18:46:00,
2013-05-09 15:02:00,66.5,58.0,29.89,West,269,0.0,1.0,75,0.00,,,0.21,weatherlink.com 1.10,2013-05-09 19:02:00,
2013-05-09 15:18:00,65.9,59.0,29.88,NNE,17,0.0,2.0,78,0.00,,,0.21,weatherlink.com 1.10,2013-05-09 19:18:00,
2013-05-09 15:33:00,65.6,58.0,29.88,NNE,17,0.0,0.0,76,0.00,,,0.21,weatherlink.com 1.10,2013-05-09 19:33:00,
2013-05-09 15:48:00,64.8,60.0,29.88,NW,315,0.0,1.0,83,0.14,,,0.35,weatherlink.com 1.10,2013-05-09 19:48:00,
2013-05-09 16:05:00,62.2,60.0,29.88,WSW,252,0.0,4.0,91,0.44,,,0.65,weatherlink.com 1.10,2013-05-09 20:05:00,
2013-05-09 16:17:00,60.4,58.0,29.88,SSW,200,2.0,3.0,90,0.66,,,0.87,weatherlink.com 1.10,2013-05-09 20:17:00,
2013-05-09 16:35:00,59.2,58.0,29.89,SSW,200,0.0,2.0,94,0.68,,,0.89,weatherlink.com 1.10,2013-05-09 20:35:00,
2013-05-09 16:48:00,59.3,58.0,29.89,SSW,200,0.0,0.0,94,0.57,,,0.93,weatherlink.com 1.10,2013-05-09 20:48:00,
2013-05-09 17:05:00,59.3,58.0,29.87,SSW,199,0.0,0.0,95,0.28,,,0.96,weatherlink.com 1.10,2013-05-09 21:05:00,
2013-05-09 17:18:00,59.4,58.0,29.87,SSW,199,0.0,0.0,95,0.10,,,0.97,weatherlink.com 1.10,2013-05-09 21:18:00,
2013-05-09 17:35:00,59.6,58.0,29.87,SSW,199,0.0,0.0,95,0.07,,,0.97,weatherlink.com 1.10,2013-05-09 21:35:00,
2013-05-09 17:48:00,59.6,58.0,29.88,SSW,192,0.0,0.0,95,0.04,,,0.97,weatherlink.com 1.10,2013-05-09 21:48:00,
2013-05-09 18:04:00,59.3,58.0,29.87,NE,34,0.0,2.0,95,0.01,,,0.97,weatherlink.com 1.10,2013-05-09 22:04:00,
2013-05-09 18:19:00,59.1,58.0,29.88,NE,34,0.0,0.0,95,0.00,,,0.97,weatherlink.com 1.10,2013-05-09 22:19:00,
2013-05-09 18:34:00,59.0,58.0,29.88,NE,34,0.0,0.0,96,0.00,,,0.97,weatherlink.com 1.10,2013-05-09 22:34:00,
2013-05-09 18:50:00,59.0,58.0,29.88,NE,34,0.0,0.0,96,0.00,,,0.97,weatherlink.com 1.10,2013-05-09 22:50:00,
2013-05-09 19:04:00,58.9,58.0,29.88,NE,34,0.0,0.0,96,0.00,,,0.97,weatherlink.com 1.10,2013-05-09 23:04:00,
2013-05-09 19:20:00,58.8,58.0,29.88,NE,34,0.0,0.0,96,0.00,,,0.97,weatherlink.com 1.10,2013-05-09 23:20:00,
2013-05-09 19:34:00,58.7,58.0,29.89,NE,34,0.0,0.0,96,0.00,,,0.97,weatherlink.com 1.10,2013-05-09 23:34:00,
2013-05-09 19:50:00,58.5,57.0,29.89,NE,34,0.0,0.0,96,0.00,,,0.97,weatherlink.com 1.10,2013-05-09 23:50:00,
2013-05-09 20:05:00,58.1,57.0,29.89,NE,34,0.0,0.0,96,0.00,,,0.97,weatherlink.com 1.10,2013-05-10 00:05:00,
2013-05-09 20:20:00,57.8,57.0,29.90,NE,34,0.0,0.0,96,0.00,,,0.97,weatherlink.com 1.10,2013-05-10 00:20:00,
2013-05-09 20:35:00,57.6,57.0,29.90,NE,34,0.0,0.0,96,0.00,,,0.97,weatherlink.com 1.10,2013-05-10 00:35:00,
2013-05-09 20:50:00,57.3,56.0,29.90,NE,34,0.0,0.0,96,0.00,,,0.97,weatherlink.com 1.10,2013-05-10 00:50:00,
2013-05-09 21:06:00,57.1,56.0,29.90,NE,34,0.0,0.0,96,0.00,,,0.97,weatherlink.com 1.10,2013-05-10 01:06:00,
2013-05-09 21:20:00,56.7,56.0,29.91,NE,34,0.0,0.0,96,0.00,,,0.97,weatherlink.com 1.10,2013-05-10 01:20:00,
2013-05-09 21:35:00,56.3,55.0,29.90,NE,34,0.0,0.0,96,0.00,,,0.97,weatherlink.com 1.10,2013-05-10 01:35:00,
2013-05-09 21:51:00,55.7,55.0,29.90,NE,34,0.0,0.0,96,0.00,,,0.97,weatherlink.com 1.10,2013-05-10 01:51:00,
2013-05-09 22:06:00,55.2,54.0,29.90,NE,34,0.0,0.0,96,0.00,,,0.97,weatherlink.com 1.10,2013-05-10 02:06:00,
2013-05-09 22:21:00,54.9,54.0,29.90,NE,34,0.0,0.0,96,0.00,,,0.97,weatherlink.com 1.10,2013-05-10 02:21:00,
2013-05-09 22:36:00,54.7,54.0,29.90,NE,34,0.0,0.0,97,0.00,,,0.97,weatherlink.com 1.10,2013-05-10 02:36:00,
2013-05-09 22:51:00,54.7,54.0,29.89,NE,34,0.0,0.0,97,0.00,,,0.97,weatherlink.com 1.10,2013-05-10 02:51:00,
2013-05-09 23:07:00,54.9,54.0,29.89,NE,34,0.0,0.0,97,0.00,,,0.97,weatherlink.com 1.10,2013-05-10 03:07:00,
2013-05-09 23:21:00,54.9,54.0,29.89,NE,34,0.0,0.0,97,0.00,,,0.97,weatherlink.com 1.10,2013-05-10 03:21:00,
2013-05-09 23:36:00,54.9,54.0,29.88,NE,34,0.0,0.0,97,0.00,,,0.97,weatherlink.com 1.10,2013-05-10 03:36:00,
2013-05-09 23:51:00,54.8,54.0,29.88,NE,34,0.0,0.0,97,0.00,,,0.97,weatherlink.com 1.10,2013-05-10 03:51:00,